createdAt,value
2019-05-07T00:01:56.854Z,13.75
2019-05-07T00:07:02.538Z,14.07
2019-05-07T00:12:07.957Z,14.17
2019-05-07T00:17:13.226Z,13.45
2019-05-07T00:22:18.527Z,14.23
2019-05-07T00:27:23.854Z,14.83
2019-05-07T00:32:29.494Z,13.85
2019-05-07T00:37:42.999Z,15.08
2019-05-07T00:43:05.854Z,15.90
2019-05-07T00:48:12.657Z,14.40
2019-05-07T00:53:18.206Z,14.70
2019-05-07T00:58:26.767Z,14.27
2019-05-07T01:03:32.778Z,15.38
2019-05-07T01:08:37.911Z,17.50
2019-05-07T01:13:43.585Z,15.13
2019-05-07T01:18:48.903Z,14.53
2019-05-07T01:23:55.123Z,16.57
2019-05-07T01:29:02.846Z,15.77
2019-05-07T01:34:27.024Z,14.80
2019-05-07T01:39:32.897Z,13.72
2019-05-07T01:44:38.234Z,14.10
2019-05-07T01:49:43.582Z,14.00
2019-05-07T01:54:48.862Z,15.93
2019-05-07T01:59:54.157Z,14.27
2019-05-07T02:05:05.921Z,14.63
2019-05-07T02:10:32.137Z,13.35
2019-05-07T02:15:37.673Z,14.03
2019-05-07T02:20:43.247Z,16.32
2019-05-07T02:25:48.475Z,15.68
2019-05-07T02:30:53.740Z,14.27
2019-05-07T02:35:59.136Z,14.33
2019-05-07T02:41:09.834Z,19.35
2019-05-07T02:46:30.915Z,22.60
2019-05-07T02:51:36.360Z,22.50
2019-05-07T02:56:43.240Z,68.28
2019-05-07T03:01:48.996Z,65.28
2019-05-07T03:06:54.690Z,237.82
2019-05-07T03:11:59.979Z,131.72
2019-05-07T03:17:05.586Z,78.60
2019-05-07T03:22:14.029Z,85.03
2019-05-07T03:27:17.872Z,52.83
2019-05-07T03:32:36.574Z,25.83
2019-05-07T03:37:38.810Z,15.40
2019-05-07T03:42:45.356Z,17.30
2019-05-07T03:47:56.575Z,14.90
2019-05-07T03:53:02.726Z,15.17
2019-05-07T03:58:08.279Z,18.37
2019-05-07T04:03:18.783Z,14.30
2019-05-07T04:08:23.557Z,13.13
2019-05-07T04:13:29.007Z,14.30
2019-05-07T04:18:34.399Z,12.55
2019-05-07T04:23:39.611Z,13.72
2019-05-07T04:28:54.104Z,16.17
2019-05-07T04:34:03.736Z,12.60
2019-05-07T04:39:09.470Z,13.13
2019-05-07T04:44:14.798Z,14.80
2019-05-07T04:49:20.299Z,15.63
2019-05-07T04:54:25.990Z,17.37
2019-05-07T04:59:33.025Z,17.02
2019-05-07T05:04:39.096Z,16.23
2019-05-07T05:09:44.422Z,15.65
2019-05-07T05:14:49.658Z,15.32
2019-05-07T05:19:56.432Z,15.17
2019-05-07T05:25:12.093Z,16.47
2019-05-07T05:30:26.426Z,16.90
2019-05-07T05:35:32.178Z,16.37
2019-05-07T05:40:37.394Z,14.43
2019-05-07T05:45:44.255Z,15.72
2019-05-07T05:51:07.111Z,17.92
2019-05-07T05:56:19.778Z,15.55
2019-05-07T06:01:53.267Z,15.65
2019-05-07T06:07:10.765Z,14.20
2019-05-07T06:12:42.835Z,16.50
2019-05-07T06:18:02.586Z,16.07
2019-05-07T06:23:23.907Z,13.78
2019-05-07T06:28:29.211Z,14.05
2019-05-07T06:33:34.568Z,15.73
2019-05-07T06:38:48.931Z,15.00
2019-05-07T06:44:02.098Z,15.87
2019-05-07T06:49:08.609Z,16.40
2019-05-07T06:54:14.012Z,18.60
2019-05-07T06:59:34.578Z,16.12
2019-05-07T07:05:02.864Z,16.30
2019-05-07T07:10:33.295Z,19.92
2019-05-07T07:15:38.854Z,18.57
2019-05-07T07:20:45.115Z,18.15
2019-05-07T07:25:52.253Z,23.50
2019-05-07T07:31:19.743Z,21.90
2019-05-07T07:36:26.942Z,20.52
2019-05-07T07:41:38.688Z,21.97
2019-05-07T07:46:43.964Z,22.50
2019-05-07T07:51:49.346Z,21.43
2019-05-07T07:57:13.605Z,24.65
2019-05-07T08:02:42.301Z,24.37
2019-05-07T08:07:47.592Z,23.87
2019-05-07T08:12:53.011Z,26.93
2019-05-07T08:17:58.340Z,25.85
2019-05-07T08:23:03.768Z,25.40
2019-05-07T08:28:09.130Z,25.72
2019-05-07T08:33:19.336Z,24.40
2019-05-07T08:38:24.910Z,20.90
2019-05-07T08:43:32.157Z,21.40
2019-05-07T08:48:42.476Z,20.30
2019-05-07T08:53:52.777Z,20.80
2019-05-07T08:58:58.147Z,19.90
2019-05-07T09:04:03.497Z,15.13
2019-05-07T09:09:13.177Z,15.78
2019-05-07T09:14:18.672Z,16.35
2019-05-07T09:19:25.375Z,19.75
2019-05-07T09:24:33.218Z,16.70
2019-05-07T09:29:56.844Z,15.88
2019-05-07T09:35:02.483Z,18.30
2019-05-07T09:40:08.964Z,18.17
2019-05-07T09:45:14.488Z,14.87
2019-05-07T09:50:22.087Z,14.35
2019-05-07T09:55:27.383Z,13.53
2019-05-07T10:00:32.851Z,14.78
2019-05-07T10:05:39.956Z,14.57
2019-05-07T10:10:50.215Z,12.43
2019-05-07T10:15:54.215Z,14.00
2019-05-07T10:21:00.046Z,13.48
2019-05-07T10:26:05.323Z,12.17
2019-05-07T10:31:10.831Z,12.98
2019-05-07T10:36:16.171Z,11.35
2019-05-07T10:41:22.360Z,12.80
2019-05-07T10:46:56.059Z,11.37
2019-05-07T10:52:02.153Z,9.75
2019-05-07T10:57:07.757Z,11.88
2019-05-07T11:02:18.803Z,9.00
2019-05-07T11:07:24.993Z,7.80
2019-05-07T11:12:31.947Z,7.12
2019-05-07T11:17:47.207Z,7.10
2019-05-07T11:22:52.574Z,6.53
2019-05-07T11:27:59.430Z,9.05
2019-05-07T11:33:04.717Z,10.93
2019-05-07T11:38:18.702Z,10.23
2019-05-07T11:43:27.655Z,9.80
2019-05-07T11:48:37.604Z,8.53
2019-05-07T11:54:02.168Z,9.93
2019-05-07T11:59:07.823Z,8.35
2019-05-07T12:04:14.455Z,7.37
2019-05-07T12:09:21.774Z,8.20
2019-05-07T12:14:31.765Z,8.88
2019-05-07T12:19:35.290Z,6.22
2019-05-07T12:24:41.935Z,8.60
2019-05-07T12:29:47.482Z,7.30
2019-05-07T12:34:58.944Z,6.83
2019-05-07T12:40:05.085Z,8.60
2019-05-07T12:45:12.622Z,7.10
2019-05-07T12:50:18.105Z,8.20
2019-05-07T12:55:35.011Z,5.93
2019-05-07T13:00:55.018Z,6.03
2019-05-07T13:06:02.362Z,6.00
2019-05-07T13:11:07.296Z,6.33
2019-05-07T13:16:12.882Z,7.05
2019-05-07T13:25:11.973Z,5.80
2019-05-07T13:30:17.531Z,5.30
2019-05-07T13:35:22.809Z,5.45
2019-05-07T13:40:34.428Z,7.60
2019-05-07T13:46:02.707Z,6.43
2019-05-07T13:51:08.257Z,4.72
2019-05-07T13:56:13.564Z,6.60
2019-05-07T14:01:37.766Z,7.83
2019-05-07T14:06:43.351Z,6.20
2019-05-07T14:11:49.010Z,7.28
2019-05-07T14:16:54.281Z,6.37
2019-05-07T14:21:59.501Z,7.00
2019-05-07T14:27:04.857Z,5.55
2019-05-07T14:32:29.138Z,5.55
2019-05-07T14:37:37.874Z,7.28
2019-05-07T14:42:48.685Z,6.47
2019-05-07T14:47:54.960Z,5.87
2019-05-07T14:53:02.555Z,5.53
2019-05-07T14:58:07.748Z,6.42
2019-05-07T15:03:13.269Z,12.90
2019-05-07T15:08:18.765Z,5.03
2019-05-07T15:13:24.161Z,6.53
2019-05-07T15:18:48.757Z,7.03
2019-05-07T15:23:56.224Z,4.92
2019-05-07T15:29:07.158Z,7.85
2019-05-07T15:34:12.653Z,6.35
2019-05-07T15:39:17.952Z,6.25
2019-05-07T15:44:23.159Z,5.62
2019-05-07T15:49:28.970Z,5.40
2019-05-07T15:54:34.188Z,5.60
2019-05-07T15:59:39.486Z,5.65
2019-05-07T16:04:45.387Z,4.33
2019-05-07T16:09:52.618Z,4.70
2019-05-07T16:14:58.092Z,5.65
2019-05-07T16:20:03.581Z,8.60
2019-05-07T16:25:09.078Z,5.90
2019-05-07T16:30:15.083Z,5.50
2019-05-07T16:35:22.631Z,6.77
2019-05-07T16:40:27.719Z,4.87
2019-05-07T16:45:33.054Z,5.47
2019-05-07T16:50:38.496Z,4.47
2019-05-07T16:55:43.825Z,4.97
2019-05-07T17:00:52.769Z,5.50
2019-05-07T17:05:58.192Z,4.90
2019-05-07T17:11:03.573Z,4.60
2019-05-07T17:16:12.210Z,4.42
2019-05-07T17:21:17.023Z,4.62
2019-05-07T17:26:23.742Z,5.20
2019-05-07T17:31:28.963Z,3.23
2019-05-07T17:36:34.405Z,5.42
2019-05-07T17:41:40.272Z,4.65
2019-05-07T17:46:46.228Z,5.95
2019-05-07T17:51:52.727Z,4.23
2019-05-07T17:56:58.056Z,6.20
2019-05-07T18:02:19.342Z,3.47
2019-05-07T18:07:25.026Z,5.60
2019-05-07T18:12:32.041Z,6.22
2019-05-07T18:18:03.068Z,5.97
2019-05-07T18:23:10.645Z,6.05
2019-05-07T18:28:16.157Z,5.22
2019-05-07T18:33:42.503Z,4.47
2019-05-07T18:38:48.144Z,6.23
2019-05-07T18:43:54.736Z,6.50
2019-05-07T18:49:00.242Z,11.03
2019-05-07T18:54:05.958Z,22.93
2019-05-07T18:59:12.011Z,11.90
2019-05-07T19:04:17.991Z,7.20
2019-05-07T19:09:23.660Z,6.25
2019-05-07T19:14:29.079Z,5.53
2019-05-07T19:19:34.893Z,7.40
2019-05-07T19:24:45.247Z,5.53
2019-05-07T19:29:48.268Z,9.40
2019-05-07T19:34:55.087Z,7.40
2019-05-07T19:40:02.024Z,14.70
2019-05-07T19:45:12.805Z,10.63
2019-05-07T19:50:19.518Z,9.13
2019-05-07T19:55:24.955Z,8.13
2019-05-07T20:00:32.831Z,8.60
2019-05-07T20:05:39.381Z,9.20
2019-05-07T20:10:58.325Z,8.58
2019-05-07T20:16:13.864Z,8.53
2019-05-07T20:21:22.648Z,7.30
2019-05-07T20:26:27.441Z,6.42
2019-05-07T20:31:33.841Z,5.72
2019-05-07T20:36:40.104Z,7.80
2019-05-07T20:41:46.563Z,10.13
2019-05-07T20:46:53.603Z,8.63
2019-05-07T20:51:59.713Z,7.42
2019-05-07T20:57:08.305Z,8.85
2019-05-07T21:02:16.325Z,7.17
2019-05-07T21:07:22.220Z,8.50
2019-05-07T21:12:28.048Z,8.18
2019-05-07T21:17:35.108Z,8.43
2019-05-07T21:22:42.446Z,9.58
2019-05-07T21:27:48.318Z,6.97
2019-05-07T21:32:54.635Z,9.23
2019-05-07T21:38:01.243Z,6.37
2019-05-07T21:43:07.206Z,9.23
2019-05-07T21:48:13.822Z,7.12
2019-05-07T21:53:25.542Z,7.47
2019-05-07T21:58:40.994Z,8.45
2019-05-07T22:03:56.113Z,11.03
2019-05-07T22:09:02.581Z,13.07
2019-05-07T22:14:10.049Z,9.83
2019-05-07T22:19:16.239Z,9.38
2019-05-07T22:24:22.584Z,11.55
2019-05-07T22:29:28.475Z,10.65
2019-05-07T22:34:56.639Z,9.03
2019-05-07T22:40:04.205Z,12.00
2019-05-07T22:45:12.104Z,10.80
2019-05-07T22:50:18.080Z,8.20
2019-05-07T22:55:23.458Z,12.80
2019-05-07T23:00:33.568Z,9.65
2019-05-07T23:05:39.267Z,9.50
2019-05-07T23:10:44.757Z,9.93
2019-05-07T23:15:51.653Z,9.95
2019-05-07T23:20:57.284Z,10.23
2019-05-07T23:26:02.957Z,10.35
2019-05-07T23:31:08.262Z,9.23
2019-05-07T23:36:14.835Z,9.55
2019-05-07T23:41:42.152Z,9.13
2019-05-07T23:46:51.844Z,11.87
2019-05-07T23:51:57.043Z,8.85
2019-05-07T23:57:07.110Z,17.00
